sensor_id;sensor_type;location;lat;lon;timestamp;pressure;altitude;pressure_sealevel;temperature;humidity
29045;BME280;16133;49.486;12.176;2023-03-01T00:00:45;98300.03;;;-4.16;100.00
29045;BME280;16133;49.486;12.176;2023-03-01T00:03:12;98305.16;;;-4.15;100.00
29045;BME280;16133;49.486;12.176;2023-03-01T00:05:43;98303.53;;;-4.17;100.00
29045;BME280;16133;49.486;12.176;2023-03-01T00:08:09;98305.31;;;-4.18;100.00
29045;BME280;16133;49.486;12.176;2023-03-01T00:10:34;98314.75;;;-4.17;100.00
29045;BME280;16133;49.486;12.176;2023-03-01T00:12:59;98319.88;;;-4.15;100.00
29045;BME280;16133;49.486;12.176;2023-03-01T00:15:25;98314.88;;;-4.20;100.00
29045;BME280;16133;49.486;12.176;2023-03-01T00:17:50;98321.94;;;-4.23;100.00
29045;BME280;16133;49.486;12.176;2023-03-01T00:20:15;98310.09;;;-4.29;100.00
29045;BME280;16133;49.486;12.176;2023-03-01T00:22:41;98317.28;;;-4.15;100.00
29045;BME280;16133;49.486;12.176;2023-03-01T00:25:07;98320.75;;;-4.16;100.00
29045;BME280;16133;49.486;12.176;2023-03-01T00:27:32;98308.47;;;-4.11;100.00
29045;BME280;16133;49.486;12.176;2023-03-01T00:29:58;98301.59;;;-4.12;100.00
29045;BME280;16133;49.486;12.176;2023-03-01T00:32:23;98301.06;;;-4.20;100.00
29045;BME280;16133;49.486;12.176;2023-03-01T00:34:49;98300.31;;;-4.22;100.00
29045;BME280;16133;49.486;12.176;2023-03-01T00:37:21;98293.84;;;-4.32;100.00
29045;BME280;16133;49.486;12.176;2023-03-01T00:39:48;98302.88;;;-4.41;100.00
29045;BME280;16133;49.486;12.176;2023-03-01T00:42:13;98294.63;;;-4.51;100.00
29045;BME280;16133;49.486;12.176;2023-03-01T00:44:38;98294.13;;;-4.59;100.00
29045;BME280;16133;49.486;12.176;2023-03-01T00:47:04;98295.34;;;-4.67;100.00
29045;BME280;16133;49.486;12.176;2023-03-01T00:49:29;98298.25;;;-4.75;100.00
29045;BME280;16133;49.486;12.176;2023-03-01T00:51:55;98274.78;;;-4.91;100.00
29045;BME280;16133;49.486;12.176;2023-03-01T00:54:20;98277.56;;;-4.95;100.00
29045;BME280;16133;49.486;12.176;2023-03-01T00:56:45;98279.09;;;-4.91;100.00
29045;BME280;16133;49.486;12.176;2023-03-01T00:59:10;98278.97;;;-4.88;100.00
29045;BME280;16133;49.486;12.176;2023-03-01T01:01:36;98281.44;;;-4.85;100.00
29045;BME280;16133;49.486;12.176;2023-03-01T01:04:12;98272.94;;;-4.89;100.00
29045;BME280;16133;49.486;12.176;2023-03-01T01:06:43;98282.53;;;-4.91;100.00
29045;BME280;16133;49.486;12.176;2023-03-01T01:09:11;98283.63;;;-4.96;100.00
29045;BME280;16133;49.486;12.176;2023-03-01T01:11:43;98269.25;;;-5.03;100.00
29045;BME280;16133;49.486;12.176;2023-03-01T01:14:08;98251.13;;;-5.23;100.00
29045;BME280;16133;49.486;12.176;2023-03-01T01:16:33;98268.06;;;-5.16;100.00
29045;BME280;16133;49.486;12.176;2023-03-01T01:18:59;98265.56;;;-5.18;100.00
29045;BME280;16133;49.486;12.176;2023-03-01T01:21:24;98259.84;;;-5.26;100.00
29045;BME280;16133;49.486;12.176;2023-03-01T01:23:50;98265.56;;;-5.18;100.00
29045;BME280;16133;49.486;12.176;2023-03-01T01:26:17;98261.31;;;-5.20;100.00
29045;BME280;16133;49.486;12.176;2023-03-01T01:28:43;98231.88;;;-5.38;100.00
29045;BME280;16133;49.486;12.176;2023-03-01T01:31:08;98246.44;;;-5.36;100.00
29045;BME280;16133;49.486;12.176;2023-03-01T01:33:34;98255.56;;;-5.27;100.00
29045;BME280;16133;49.486;12.176;2023-03-01T01:35:59;98256.16;;;-5.20;100.00
29045;BME280;16133;49.486;12.176;2023-03-01T01:38:25;98229.03;;;-5.32;100.00
29045;BME280;16133;49.486;12.176;2023-03-01T01:40:51;98223.16;;;-5.36;100.00
29045;BME280;16133;49.486;12.176;2023-03-01T01:43:23;98246.53;;;-5.17;100.00
29045;BME280;16133;49.486;12.176;2023-03-01T01:45:49;98224.41;;;-5.24;100.00
29045;BME280;16133;49.486;12.176;2023-03-01T01:48:19;98209.63;;;-5.42;100.00
29045;BME280;16133;49.486;12.176;2023-03-01T01:50:54;98229.00;;;-5.31;100.00
29045;BME280;16133;49.486;12.176;2023-03-01T01:53:20;98232.72;;;-5.38;100.00
29045;BME280;16133;49.486;12.176;2023-03-01T01:55:49;98230.31;;;-5.42;100.00
29045;BME280;16133;49.486;12.176;2023-03-01T01:58:19;98158.25;;;-5.92;100.00
29045;BME280;16133;49.486;12.176;2023-03-01T02:00:45;98215.25;;;-5.53;100.00
29045;BME280;16133;49.486;12.176;2023-03-01T02:03:14;98188.88;;;-5.61;100.00
29045;BME280;16133;49.486;12.176;2023-03-01T02:06:06;98213.25;;;-5.46;100.00
29045;BME280;16133;49.486;12.176;2023-03-01T02:08:35;98202.19;;;-5.50;100.00
29045;BME280;16133;49.486;12.176;2023-03-01T02:11:02;98194.03;;;-5.61;100.00
29045;BME280;16133;49.486;12.176;2023-03-01T02:13:30;98189.81;;;-5.63;100.00
29045;BME280;16133;49.486;12.176;2023-03-01T02:15:56;98208.38;;;-5.54;100.00
29045;BME280;16133;49.486;12.176;2023-03-01T02:18:23;98207.38;;;-5.50;100.00
29045;BME280;16133;49.486;12.176;2023-03-01T02:21:04;98193.78;;;-5.55;100.00
29045;BME280;16133;49.486;12.176;2023-03-01T02:23:30;98203.13;;;-5.31;100.00
29045;BME280;16133;49.486;12.176;2023-03-01T02:26:26;98197.59;;;-5.21;100.00
29045;BME280;16133;49.486;12.176;2023-03-01T02:28:56;98192.00;;;-5.12;100.00
29045;BME280;16133;49.486;12.176;2023-03-01T02:31:22;98179.06;;;-5.12;100.00
29045;BME280;16133;49.486;12.176;2023-03-01T02:34:07;98184.13;;;-4.89;100.00
29045;BME280;16133;49.486;12.176;2023-03-01T02:36:39;98175.84;;;-4.97;100.00
29045;BME280;16133;49.486;12.176;2023-03-01T02:39:07;98192.13;;;-4.75;100.00
29045;BME280;16133;49.486;12.176;2023-03-01T02:41:42;98185.56;;;-4.63;100.00
29045;BME280;16133;49.486;12.176;2023-03-01T02:44:08;98190.88;;;-4.66;100.00
29045;BME280;16133;49.486;12.176;2023-03-01T02:46:42;98170.97;;;-4.64;100.00
29045;BME280;16133;49.486;12.176;2023-03-01T02:49:28;98179.78;;;-4.50;100.00
29045;BME280;16133;49.486;12.176;2023-03-01T02:54:46;98152.13;;;-4.68;100.00
29045;BME280;16133;49.486;12.176;2023-03-01T02:57:13;98158.00;;;-4.64;100.00
29045;BME280;16133;49.486;12.176;2023-03-01T02:59:39;98151.56;;;-4.56;100.00
29045;BME280;16133;49.486;12.176;2023-03-01T03:02:06;98167.09;;;-4.56;100.00
29045;BME280;16133;49.486;12.176;2023-03-01T03:04:31;98172.56;;;-4.62;100.00
29045;BME280;16133;49.486;12.176;2023-03-01T03:06:57;98153.38;;;-4.76;100.00
29045;BME280;16133;49.486;12.176;2023-03-01T03:09:22;98151.56;;;-4.56;100.00
29045;BME280;16133;49.486;12.176;2023-03-01T03:11:47;98154.25;;;-4.57;100.00
29045;BME280;16133;49.486;12.176;2023-03-01T03:14:15;98150.75;;;-4.38;100.00
29045;BME280;16133;49.486;12.176;2023-03-01T03:16:43;98146.34;;;-4.36;100.00
29045;BME280;16133;49.486;12.176;2023-03-01T03:19:08;98154.25;;;-4.39;100.00
29045;BME280;16133;49.486;12.176;2023-03-01T03:21:34;98125.59;;;-4.36;100.00
29045;BME280;16133;49.486;12.176;2023-03-01T03:23:59;98101.59;;;-4.58;100.00
29045;BME280;16133;49.486;12.176;2023-03-01T03:26:25;98120.44;;;-4.36;100.00
29045;BME280;16133;49.486;12.176;2023-03-01T03:28:50;98164.06;;;-4.26;100.00
29045;BME280;16133;49.486;12.176;2023-03-01T03:31:16;98159.63;;;-4.24;100.00
29045;BME280;16133;49.486;12.176;2023-03-01T03:33:41;98142.47;;;-4.27;100.00
29045;BME280;16133;49.486;12.176;2023-03-01T03:36:07;98147.66;;;-4.27;100.00
29045;BME280;16133;49.486;12.176;2023-03-01T03:38:39;98130.59;;;-4.31;100.00
29045;BME280;16133;49.486;12.176;2023-03-01T03:41:06;98159.00;;;-4.11;100.00
29045;BME280;16133;49.486;12.176;2023-03-01T03:43:35;98129.88;;;-4.35;100.00
29045;BME280;16133;49.486;12.176;2023-03-01T03:46:02;98155.50;;;-4.28;100.00
29045;BME280;16133;49.486;12.176;2023-03-01T03:48:37;98143.88;;;-4.20;100.00
29045;BME280;16133;49.486;12.176;2023-03-01T03:51:03;98135.91;;;-4.15;100.00
29045;BME280;16133;49.486;12.176;2023-03-01T03:53:31;98122.88;;;-4.32;100.00
29045;BME280;16133;49.486;12.176;2023-03-01T03:55:57;98140.16;;;-4.33;100.00
29045;BME280;16133;49.486;12.176;2023-03-01T03:58:24;98157.34;;;-4.30;100.00
29045;BME280;16133;49.486;12.176;2023-03-01T04:00:52;98151.66;;;-4.39;100.00
29045;BME280;16133;49.486;12.176;2023-03-01T04:03:19;98140.09;;;-4.50;100.00
29045;BME280;16133;49.486;12.176;2023-03-01T04:05:45;98153.09;;;-4.52;100.00
29045;BME280;16133;49.486;12.176;2023-03-01T04:08:12;98070.56;;;-5.15;100.00
29045;BME280;16133;49.486;12.176;2023-03-01T04:10:41;98134.19;;;-4.91;100.00
29045;BME280;16133;49.486;12.176;2023-03-01T04:13:10;98162.31;;;-4.84;100.00
29045;BME280;16133;49.486;12.176;2023-03-01T04:15:36;98163.03;;;-4.80;100.00
29045;BME280;16133;49.486;12.176;2023-03-01T04:18:02;98138.75;;;-4.98;100.00
29045;BME280;16133;49.486;12.176;2023-03-01T04:20:30;98137.91;;;-4.98;100.00
29045;BME280;16133;49.486;12.176;2023-03-01T04:23:01;98161.63;;;-4.87;100.00
29045;BME280;16133;49.486;12.176;2023-03-01T04:25:50;98146.28;;;-4.92;100.00
29045;BME280;16133;49.486;12.176;2023-03-01T04:28:41;98165.09;;;-4.88;100.00
29045;BME280;16133;49.486;12.176;2023-03-01T04:31:12;98153.59;;;-5.01;100.00
29045;BME280;16133;49.486;12.176;2023-03-01T04:33:43;98152.41;;;-4.94;100.00
29045;BME280;16133;49.486;12.176;2023-03-01T04:36:10;98121.69;;;-5.02;100.00
29045;BME280;16133;49.486;12.176;2023-03-01T04:38:39;98163.78;;;-4.78;100.00
29045;BME280;16133;49.486;12.176;2023-03-01T04:41:10;98160.06;;;-4.91;100.00
29045;BME280;16133;49.486;12.176;2023-03-01T04:43:37;98170.28;;;-4.88;100.00
29045;BME280;16133;49.486;12.176;2023-03-01T04:46:07;98154.19;;;-4.95;100.00
29045;BME280;16133;49.486;12.176;2023-03-01T04:48:37;98162.56;;;-4.90;100.00
29045;BME280;16133;49.486;12.176;2023-03-01T04:51:03;98157.59;;;-4.94;100.00
29045;BME280;16133;49.486;12.176;2023-03-01T04:53:29;98157.38;;;-4.90;100.00
29045;BME280;16133;49.486;12.176;2023-03-01T04:55:55;98173.84;;;-4.91;100.00
29045;BME280;16133;49.486;12.176;2023-03-01T04:58:26;98172.53;;;-5.01;100.00
29045;BME280;16133;49.486;12.176;2023-03-01T05:00:52;98165.25;;;-5.11;100.00
29045;BME280;16133;49.486;12.176;2023-03-01T05:03:18;98159.28;;;-5.13;100.00
29045;BME280;16133;49.486;12.176;2023-03-01T05:05:46;98161.06;;;-5.14;100.00
29045;BME280;16133;49.486;12.176;2023-03-01T05:08:12;98155.28;;;-5.00;100.00
29045;BME280;16133;49.486;12.176;2023-03-01T05:10:44;98150.94;;;-5.00;100.00
29045;BME280;16133;49.486;12.176;2023-03-01T05:13:09;98146.09;;;-5.07;100.00
29045;BME280;16133;49.486;12.176;2023-03-01T05:15:34;98139.50;;;-5.14;100.00
29045;BME280;16133;49.486;12.176;2023-03-01T05:18:01;98149.78;;;-5.13;100.00
29045;BME280;16133;49.486;12.176;2023-03-01T05:20:29;98154.38;;;-5.19;100.00
29045;BME280;16133;49.486;12.176;2023-03-01T05:22:58;98145.13;;;-5.25;100.00
29045;BME280;16133;49.486;12.176;2023-03-01T05:25:24;98122.88;;;-5.49;100.00
29045;BME280;16133;49.486;12.176;2023-03-01T05:27:50;98146.75;;;-5.43;100.00
29045;BME280;16133;49.486;12.176;2023-03-01T05:30:16;98149.19;;;-5.60;100.00
29045;BME280;16133;49.486;12.176;2023-03-01T05:32:47;98151.56;;;-5.55;100.00
29045;BME280;16133;49.486;12.176;2023-03-01T05:35:14;98118.03;;;-5.57;100.00
29045;BME280;16133;49.486;12.176;2023-03-01T05:37:44;98119.66;;;-5.34;100.00
29045;BME280;16133;49.486;12.176;2023-03-01T05:40:12;98123.72;;;-5.28;100.00
29045;BME280;16133;49.486;12.176;2023-03-01T05:42:42;98129.91;;;-5.33;100.00
29045;BME280;16133;49.486;12.176;2023-03-01T05:45:09;98140.53;;;-5.18;100.00
29045;BME280;16133;49.486;12.176;2023-03-01T05:47:34;98084.81;;;-5.46;100.00
29045;BME280;16133;49.486;12.176;2023-03-01T05:50:00;98136.06;;;-5.15;100.00
29045;BME280;16133;49.486;12.176;2023-03-01T05:52:26;98128.22;;;-5.13;100.00
29045;BME280;16133;49.486;12.176;2023-03-01T05:54:51;98105.59;;;-5.08;100.00
29045;BME280;16133;49.486;12.176;2023-03-01T05:57:16;98121.50;;;-4.97;100.00
29045;BME280;16133;49.486;12.176;2023-03-01T05:59:42;98140.78;;;-4.84;100.00
29045;BME280;16133;49.486;12.176;2023-03-01T06:02:07;98123.00;;;-4.92;100.00
29045;BME280;16133;49.486;12.176;2023-03-01T06:04:32;98136.44;;;-4.84;100.00
29045;BME280;16133;49.486;12.176;2023-03-01T06:06:57;98133.63;;;-4.79;100.00
29045;BME280;16133;49.486;12.176;2023-03-01T06:09:23;98132.09;;;-4.83;100.00
29045;BME280;16133;49.486;12.176;2023-03-01T06:11:48;98127.50;;;-4.76;100.00
29045;BME280;16133;49.486;12.176;2023-03-01T06:14:13;98111.13;;;-4.77;100.00
29045;BME280;16133;49.486;12.176;2023-03-01T06:16:39;98127.69;;;-4.62;100.00
29045;BME280;16133;49.486;12.176;2023-03-01T06:19:05;98105.22;;;-4.80;100.00
29045;BME280;16133;49.486;12.176;2023-03-01T06:21:30;98117.19;;;-4.59;100.00
29045;BME280;16133;49.486;12.176;2023-03-01T06:23:55;98131.97;;;-4.43;100.00
29045;BME280;16133;49.486;12.176;2023-03-01T06:26:21;98140.84;;;-4.48;100.00
29045;BME280;16133;49.486;12.176;2023-03-01T06:28:46;98085.22;;;-4.77;100.00
29045;BME280;16133;49.486;12.176;2023-03-01T06:31:11;98141.34;;;-4.21;100.00
29045;BME280;16133;49.486;12.176;2023-03-01T06:33:37;98130.06;;;-4.20;100.00
29045;BME280;16133;49.486;12.176;2023-03-01T06:36:02;98144.09;;;-4.24;100.00
29045;BME280;16133;49.486;12.176;2023-03-01T06:38:28;98134.06;;;-4.13;100.00
29045;BME280;16133;49.486;12.176;2023-03-01T06:40:54;98127.75;;;-4.08;100.00
29045;BME280;16133;49.486;12.176;2023-03-01T06:43:20;98131.03;;;-4.04;100.00
29045;BME280;16133;49.486;12.176;2023-03-01T06:45:46;98099.03;;;-4.03;100.00
29045;BME280;16133;49.486;12.176;2023-03-01T06:48:11;98126.19;;;-3.93;100.00
29045;BME280;16133;49.486;12.176;2023-03-01T06:50:36;98102.53;;;-4.04;100.00
29045;BME280;16133;49.486;12.176;2023-03-01T06:53:03;98119.88;;;-3.88;100.00
29045;BME280;16133;49.486;12.176;2023-03-01T06:55:30;98125.59;;;-3.81;100.00
29045;BME280;16133;49.486;12.176;2023-03-01T06:57:56;98119.16;;;-3.72;100.00
29045;BME280;16133;49.486;12.176;2023-03-01T07:00:23;98120.91;;;-3.56;100.00
29045;BME280;16133;49.486;12.176;2023-03-01T07:02:49;98114.25;;;-3.44;100.00
29045;BME280;16133;49.486;12.176;2023-03-01T07:05:14;98106.56;;;-3.46;100.00
29045;BME280;16133;49.486;12.176;2023-03-01T07:07:40;98110.22;;;-3.50;100.00
29045;BME280;16133;49.486;12.176;2023-03-01T07:10:06;98104.88;;;-3.47;100.00
29045;BME280;16133;49.486;12.176;2023-03-01T07:12:32;98107.25;;;-3.42;100.00
29045;BME280;16133;49.486;12.176;2023-03-01T07:14:57;98105.97;;;-3.33;100.00
29045;BME280;16133;49.486;12.176;2023-03-01T07:17:22;98104.63;;;-3.25;100.00
29045;BME280;16133;49.486;12.176;2023-03-01T07:19:48;98108.97;;;-3.08;100.00
29045;BME280;16133;49.486;12.176;2023-03-01T07:22:13;98098.56;;;-2.91;100.00
29045;BME280;16133;49.486;12.176;2023-03-01T07:24:38;98087.03;;;-3.03;100.00
29045;BME280;16133;49.486;12.176;2023-03-01T07:27:04;98101.53;;;-2.81;100.00
29045;BME280;16133;49.486;12.176;2023-03-01T07:29:30;98106.47;;;-2.77;100.00
29045;BME280;16133;49.486;12.176;2023-03-01T07:31:55;98101.28;;;-2.77;100.00
29045;BME280;16133;49.486;12.176;2023-03-01T07:34:20;98108.44;;;-2.65;100.00
29045;BME280;16133;49.486;12.176;2023-03-01T07:36:46;98105.94;;;-2.51;100.00
29045;BME280;16133;49.486;12.176;2023-03-01T07:39:12;98105.31;;;-2.56;100.00
29045;BME280;16133;49.486;12.176;2023-03-01T07:41:38;98105.31;;;-2.56;100.00
29045;BME280;16133;49.486;12.176;2023-03-01T07:44:03;98091.69;;;-2.44;100.00
29045;BME280;16133;49.486;12.176;2023-03-01T07:46:29;98091.19;;;-2.34;100.00
29045;BME280;16133;49.486;12.176;2023-03-01T07:48:54;98087.59;;;-2.32;100.00
29045;BME280;16133;49.486;12.176;2023-03-01T07:51:20;98082.03;;;-2.26;100.00
29045;BME280;16133;49.486;12.176;2023-03-01T07:53:46;98086.50;;;-2.12;100.00
29045;BME280;16133;49.486;12.176;2023-03-01T07:56:13;98089.69;;;-2.07;99.92
29045;BME280;16133;49.486;12.176;2023-03-01T07:58:41;98080.06;;;-1.91;99.19
29045;BME280;16133;49.486;12.176;2023-03-01T08:01:10;98082.31;;;-1.69;96.47
29045;BME280;16133;49.486;12.176;2023-03-01T08:03:37;98074.22;;;-1.65;95.93
29045;BME280;16133;49.486;12.176;2023-03-01T08:06:04;98077.22;;;-1.57;95.10
29045;BME280;16133;49.486;12.176;2023-03-01T08:08:30;98077.22;;;-1.57;94.96
29045;BME280;16133;49.486;12.176;2023-03-01T08:10:57;98064.63;;;-1.49;94.31
29045;BME280;16133;49.486;12.176;2023-03-01T08:13:22;98065.78;;;-1.24;91.78
29045;BME280;16133;49.486;12.176;2023-03-01T08:15:49;98065.44;;;-1.04;89.64
29045;BME280;16133;49.486;12.176;2023-03-01T08:18:18;98065.25;;;-1.01;90.32
29045;BME280;16133;49.486;12.176;2023-03-01T08:20:44;98074.56;;;-0.97;89.69
29045;BME280;16133;49.486;12.176;2023-03-01T08:23:10;98070.34;;;-1.00;88.98
29045;BME280;16133;49.486;12.176;2023-03-01T08:25:35;98069.72;;;-0.89;89.35
29045;BME280;16133;49.486;12.176;2023-03-01T08:28:00;98066.75;;;-0.83;89.63
29045;BME280;16133;49.486;12.176;2023-03-01T08:30:26;98068.41;;;-0.68;86.71
29045;BME280;16133;49.486;12.176;2023-03-01T08:32:51;98065.72;;;-0.66;87.34
29045;BME280;16133;49.486;12.176;2023-03-01T08:35:17;98063.97;;;-0.66;86.45
29045;BME280;16133;49.486;12.176;2023-03-01T08:37:43;98064.50;;;-0.61;86.76
29045;BME280;16133;49.486;12.176;2023-03-01T08:40:09;98056.09;;;-0.37;85.07
29045;BME280;16133;49.486;12.176;2023-03-01T08:42:38;98058.81;;;-0.39;83.79
29045;BME280;16133;49.486;12.176;2023-03-01T08:45:04;98059.44;;;-0.35;83.92
29045;BME280;16133;49.486;12.176;2023-03-01T08:47:29;98055.50;;;-0.28;83.26
29045;BME280;16133;49.486;12.176;2023-03-01T08:49:54;98049.72;;;-0.19;83.96
29045;BME280;16133;49.486;12.176;2023-03-01T08:52:20;98041.66;;;-0.02;82.66
29045;BME280;16133;49.486;12.176;2023-03-01T08:54:49;98048.34;;;0.02;82.62
29045;BME280;16133;49.486;12.176;2023-03-01T08:57:14;98049.06;;;0.04;82.21
29045;BME280;16133;49.486;12.176;2023-03-01T08:59:39;98049.63;;;0.09;82.02
29045;BME280;16133;49.486;12.176;2023-03-01T09:02:11;98050.28;;;0.25;79.83
29045;BME280;16133;49.486;12.176;2023-03-01T09:04:37;98045.06;;;0.25;79.69
29045;BME280;16133;49.486;12.176;2023-03-01T09:07:03;98029.97;;;0.30;80.60
29045;BME280;16133;49.486;12.176;2023-03-01T09:09:28;98038.03;;;0.53;78.05
29045;BME280;16133;49.486;12.176;2023-03-01T09:11:53;98042.22;;;0.68;77.03
29045;BME280;16133;49.486;12.176;2023-03-01T09:14:19;98028.97;;;0.71;76.20
29045;BME280;16133;49.486;12.176;2023-03-01T09:16:44;98025.53;;;0.95;74.50
29045;BME280;16133;49.486;12.176;2023-03-01T09:19:10;98029.91;;;0.82;75.29
29045;BME280;16133;49.486;12.176;2023-03-01T09:21:37;98032.00;;;0.77;75.60
29045;BME280;16133;49.486;12.176;2023-03-01T09:24:02;98030.22;;;0.78;76.41
29045;BME280;16133;49.486;12.176;2023-03-01T09:26:27;98021.16;;;0.83;76.93
29045;BME280;16133;49.486;12.176;2023-03-01T09:28:55;98024.91;;;0.92;75.54
29045;BME280;16133;49.486;12.176;2023-03-01T09:31:22;98012.56;;;1.07;74.33
29045;BME280;16133;49.486;12.176;2023-03-01T09:33:49;98020.19;;;1.22;73.87
29045;BME280;16133;49.486;12.176;2023-03-01T09:36:17;98014.50;;;1.41;71.92
29045;BME280;16133;49.486;12.176;2023-03-01T09:38:43;98013.03;;;1.37;72.99
29045;BME280;16133;49.486;12.176;2023-03-01T09:41:11;98021.66;;;1.50;71.76
29045;BME280;16133;49.486;12.176;2023-03-01T09:43:56;98015.69;;;1.61;70.80
29045;BME280;16133;49.486;12.176;2023-03-01T09:46:25;98002.63;;;1.61;71.96
29045;BME280;16133;49.486;12.176;2023-03-01T09:48:56;98010.00;;;2.03;69.63
29045;BME280;16133;49.486;12.176;2023-03-01T09:51:26;98011.31;;;1.85;69.30
29045;BME280;16133;49.486;12.176;2023-03-01T09:53:52;98009.00;;;1.80;69.50
29045;BME280;16133;49.486;12.176;2023-03-01T09:56:24;98005.84;;;1.88;69.31
29045;BME280;16133;49.486;12.176;2023-03-01T09:59:15;98003.78;;;2.04;69.98
29045;BME280;16133;49.486;12.176;2023-03-01T10:07:45;97968.56;;;1.97;69.55
29045;BME280;16133;49.486;12.176;2023-03-01T10:10:48;97994.56;;;2.22;71.12
29045;BME280;16133;49.486;12.176;2023-03-01T10:13:25;97990.03;;;2.48;68.76
29045;BME280;16133;49.486;12.176;2023-03-01T10:16:09;97988.22;;;2.37;69.51
29045;BME280;16133;49.486;12.176;2023-03-01T10:18:36;97983.13;;;2.47;69.24
29045;BME280;16133;49.486;12.176;2023-03-01T10:21:14;97982.03;;;2.50;69.58
29045;BME280;16133;49.486;12.176;2023-03-01T10:23:41;97985.63;;;2.49;71.04
29045;BME280;16133;49.486;12.176;2023-03-01T10:26:20;97982.44;;;2.56;69.44
29045;BME280;16133;49.486;12.176;2023-03-01T10:29:07;97976.88;;;2.72;70.03
29045;BME280;16133;49.486;12.176;2023-03-01T10:31:49;97972.00;;;2.78;68.87
29045;BME280;16133;49.486;12.176;2023-03-01T10:34:27;97978.53;;;2.84;69.60
29045;BME280;16133;49.486;12.176;2023-03-01T10:36:56;97960.31;;;2.94;69.45
29045;BME280;16133;49.486;12.176;2023-03-01T10:39:25;97964.63;;;3.06;67.90
29045;BME280;16133;49.486;12.176;2023-03-01T10:42:05;97955.81;;;3.18;67.94
29045;BME280;16133;49.486;12.176;2023-03-01T10:44:44;97960.06;;;3.19;67.96
29045;BME280;16133;49.486;12.176;2023-03-01T10:47:20;97948.41;;;3.12;68.31
29045;BME280;16133;49.486;12.176;2023-03-01T10:54:59;97940.38;;;3.35;67.47
29045;BME280;16133;49.486;12.176;2023-03-01T10:57:35;97935.13;;;3.47;66.25
29045;BME280;16133;49.486;12.176;2023-03-01T11:00:19;97939.19;;;3.40;68.11
29045;BME280;16133;49.486;12.176;2023-03-01T11:05:25;97932.75;;;3.44;67.03
29045;BME280;16133;49.486;12.176;2023-03-01T11:07:55;97925.22;;;3.50;66.89
29045;BME280;16133;49.486;12.176;2023-03-01T11:10:33;97917.66;;;3.68;66.54
29045;BME280;16133;49.486;12.176;2023-03-01T11:13:18;97921.59;;;3.62;68.69
29045;BME280;16133;49.486;12.176;2023-03-01T11:16:06;97913.38;;;3.67;67.34
29045;BME280;16133;49.486;12.176;2023-03-01T11:18:33;97910.28;;;3.62;68.92
29045;BME280;16133;49.486;12.176;2023-03-01T11:20:59;97910.34;;;3.82;66.47
29045;BME280;16133;49.486;12.176;2023-03-01T11:23:28;97902.09;;;3.76;67.43
29045;BME280;16133;49.486;12.176;2023-03-01T11:26:06;97894.75;;;3.70;67.94
29045;BME280;16133;49.486;12.176;2023-03-01T11:28:36;97899.63;;;3.95;65.88
29045;BME280;16133;49.486;12.176;2023-03-01T11:31:10;97897.53;;;3.89;66.44
29045;BME280;16133;49.486;12.176;2023-03-01T11:33:47;97874.78;;;3.99;66.93
29045;BME280;16133;49.486;12.176;2023-03-01T11:41:50;97873.28;;;4.17;66.11
29045;BME280;16133;49.486;12.176;2023-03-01T11:44:23;97875.84;;;4.08;66.87
29045;BME280;16133;49.486;12.176;2023-03-01T11:46:53;97883.72;;;4.08;67.79
29045;BME280;16133;49.486;12.176;2023-03-01T11:49:41;97871.31;;;4.10;66.58
29045;BME280;16133;49.486;12.176;2023-03-01T11:52:22;97874.50;;;4.13;67.19
29045;BME280;16133;49.486;12.176;2023-03-01T12:00:48;97860.22;;;4.06;66.86
29045;BME280;16133;49.486;12.176;2023-03-01T12:06:17;97854.72;;;4.09;66.62
29045;BME280;16133;49.486;12.176;2023-03-01T12:11:54;97853.50;;;4.13;66.24
29045;BME280;16133;49.486;12.176;2023-03-01T12:25:16;97838.56;;;4.14;68.50
29045;BME280;16133;49.486;12.176;2023-03-01T12:27:51;97829.44;;;4.39;67.35
29045;BME280;16133;49.486;12.176;2023-03-01T12:30:35;97822.41;;;4.49;66.18
29045;BME280;16133;49.486;12.176;2023-03-01T12:35:43;97820.81;;;4.27;66.71
29045;BME280;16133;49.486;12.176;2023-03-01T12:38:58;97821.75;;;4.26;66.67
29045;BME280;16133;49.486;12.176;2023-03-01T12:44:24;97811.69;;;4.31;67.78
29045;BME280;16133;49.486;12.176;2023-03-01T12:49:35;97820.78;;;4.48;67.30
29045;BME280;16133;49.486;12.176;2023-03-01T12:54:49;97793.78;;;4.46;67.33
29045;BME280;16133;49.486;12.176;2023-03-01T12:57:41;97793.22;;;4.42;67.61
29045;BME280;16133;49.486;12.176;2023-03-01T13:00:22;97787.69;;;4.45;66.88
29045;BME280;16133;49.486;12.176;2023-03-01T13:10:49;97785.38;;;4.52;66.12
29045;BME280;16133;49.486;12.176;2023-03-01T13:13:23;97790.09;;;4.58;66.77
29045;BME280;16133;49.486;12.176;2023-03-01T13:15:50;97789.72;;;4.62;65.52
29045;BME280;16133;49.486;12.176;2023-03-01T13:20:48;97784.91;;;4.67;66.57
29045;BME280;16133;49.486;12.176;2023-03-01T13:28:46;97782.72;;;4.82;66.63
29045;BME280;16133;49.486;12.176;2023-03-01T13:33:47;97785.50;;;4.90;65.50
29045;BME280;16133;49.486;12.176;2023-03-01T13:36:46;97795.59;;;4.85;65.58
29045;BME280;16133;49.486;12.176;2023-03-01T13:39:30;97802.06;;;4.81;65.86
29045;BME280;16133;49.486;12.176;2023-03-01T13:41:59;97801.28;;;4.90;66.02
29045;BME280;16133;49.486;12.176;2023-03-01T13:44:36;97800.72;;;4.96;66.00
29045;BME280;16133;49.486;12.176;2023-03-01T13:49:59;97809.97;;;4.91;65.32
29045;BME280;16133;49.486;12.176;2023-03-01T13:52:40;97805.16;;;4.86;65.03
29045;BME280;16133;49.486;12.176;2023-03-01T13:57:38;97797.38;;;4.85;65.33
29045;BME280;16133;49.486;12.176;2023-03-01T14:00:05;97795.03;;;4.91;66.45
29045;BME280;16133;49.486;12.176;2023-03-01T14:02:31;97795.19;;;4.99;66.19
29045;BME280;16133;49.486;12.176;2023-03-01T14:04:58;97780.50;;;4.87;65.65
29045;BME280;16133;49.486;12.176;2023-03-01T14:07:24;97790.94;;;4.98;66.01
29045;BME280;16133;49.486;12.176;2023-03-01T14:09:58;97783.84;;;4.99;65.87
29045;BME280;16133;49.486;12.176;2023-03-01T14:12:43;97789.97;;;5.18;64.85
29045;BME280;16133;49.486;12.176;2023-03-01T14:15:32;97796.63;;;5.22;64.29
29045;BME280;16133;49.486;12.176;2023-03-01T14:18:18;97790.00;;;5.28;64.82